sensor_id;sensor_type;location;lat;lon;timestamp;temperature;humidity
52189;DHT22;38162;45.926;13.608;2023-04-01T00:00:24;10.60;98.00
52189;DHT22;38162;45.926;13.608;2023-04-01T00:02:50;10.60;98.00
52189;DHT22;38162;45.926;13.608;2023-04-01T00:05:15;10.60;97.80
52189;DHT22;38162;45.926;13.608;2023-04-01T00:07:45;10.60;97.70
52189;DHT22;38162;45.926;13.608;2023-04-01T00:10:12;10.60;97.60
52189;DHT22;38162;45.926;13.608;2023-04-01T00:12:39;10.60;97.80
52189;DHT22;38162;45.926;13.608;2023-04-01T00:15:07;10.50;97.80
52189;DHT22;38162;45.926;13.608;2023-04-01T00:17:34;10.50;97.80
52189;DHT22;38162;45.926;13.608;2023-04-01T00:20:00;10.50;97.50
52189;DHT22;38162;45.926;13.608;2023-04-01T00:22:26;10.60;97.20
52189;DHT22;38162;45.926;13.608;2023-04-01T00:24:52;10.50;97.10
52189;DHT22;38162;45.926;13.608;2023-04-01T00:27:19;10.50;97.10
52189;DHT22;38162;45.926;13.608;2023-04-01T00:29:46;10.50;97.20
52189;DHT22;38162;45.926;13.608;2023-04-01T00:32:13;10.60;97.40
52189;DHT22;38162;45.926;13.608;2023-04-01T00:34:39;10.60;97.60
52189;DHT22;38162;45.926;13.608;2023-04-01T00:37:06;10.50;97.70
52189;DHT22;38162;45.926;13.608;2023-04-01T00:39:32;10.50;97.60
52189;DHT22;38162;45.926;13.608;2023-04-01T00:41:59;10.50;97.50
52189;DHT22;38162;45.926;13.608;2023-04-01T00:44:32;10.50;97.50
52189;DHT22;38162;45.926;13.608;2023-04-01T00:46:59;10.50;97.60
52189;DHT22;38162;45.926;13.608;2023-04-01T00:49:37;10.50;97.80
52189;DHT22;38162;45.926;13.608;2023-04-01T00:52:05;10.50;97.90
52189;DHT22;38162;45.926;13.608;2023-04-01T00:54:32;10.50;98.00
52189;DHT22;38162;45.926;13.608;2023-04-01T00:57:07;10.50;98.00
52189;DHT22;38162;45.926;13.608;2023-04-01T00:59:40;10.50;98.10
52189;DHT22;38162;45.926;13.608;2023-04-01T01:02:11;10.40;98.10
52189;DHT22;38162;45.926;13.608;2023-04-01T01:04:37;10.50;98.20
52189;DHT22;38162;45.926;13.608;2023-04-01T01:12:19;10.40;98.30
52189;DHT22;38162;45.926;13.608;2023-04-01T01:18:05;10.40;98.30
52189;DHT22;38162;45.926;13.608;2023-04-01T01:32:08;10.30;98.00
52189;DHT22;38162;45.926;13.608;2023-04-01T01:37:21;10.30;98.10
52189;DHT22;38162;45.926;13.608;2023-04-01T01:39:54;10.20;98.10
52189;DHT22;38162;45.926;13.608;2023-04-01T01:42:20;10.20;98.20
52189;DHT22;38162;45.926;13.608;2023-04-01T01:44:49;10.20;98.10
52189;DHT22;38162;45.926;13.608;2023-04-01T01:47:17;10.20;98.10
52189;DHT22;38162;45.926;13.608;2023-04-01T01:49:45;10.20;98.10
52189;DHT22;38162;45.926;13.608;2023-04-01T01:52:12;10.20;98.20
52189;DHT22;38162;45.926;13.608;2023-04-01T01:54:55;10.20;98.20
52189;DHT22;38162;45.926;13.608;2023-04-01T01:57:36;10.20;98.20
52189;DHT22;38162;45.926;13.608;2023-04-01T02:00:08;10.20;98.10
52189;DHT22;38162;45.926;13.608;2023-04-01T02:02:43;10.20;98.10
52189;DHT22;38162;45.926;13.608;2023-04-01T02:05:11;10.20;98.10
52189;DHT22;38162;45.926;13.608;2023-04-01T02:07:43;10.10;98.00
52189;DHT22;38162;45.926;13.608;2023-04-01T02:10:10;10.10;97.90
52189;DHT22;38162;45.926;13.608;2023-04-01T02:12:38;10.10;97.90
52189;DHT22;38162;45.926;13.608;2023-04-01T02:15:09;10.10;97.90
52189;DHT22;38162;45.926;13.608;2023-04-01T02:17:40;10.10;97.90
52189;DHT22;38162;45.926;13.608;2023-04-01T02:20:15;10.00;97.90
52189;DHT22;38162;45.926;13.608;2023-04-01T02:22:47;10.00;97.60
52189;DHT22;38162;45.926;13.608;2023-04-01T02:25:20;9.90;97.70
52189;DHT22;38162;45.926;13.608;2023-04-01T02:27:47;10.00;97.80
52189;DHT22;38162;45.926;13.608;2023-04-01T02:30:14;9.90;97.70
52189;DHT22;38162;45.926;13.608;2023-04-01T02:32:41;9.90;97.70
52189;DHT22;38162;45.926;13.608;2023-04-01T02:35:12;9.90;97.70
52189;DHT22;38162;45.926;13.608;2023-04-01T02:37:40;9.80;97.70
52189;DHT22;38162;45.926;13.608;2023-04-01T02:40:10;9.80;97.60
52189;DHT22;38162;45.926;13.608;2023-04-01T02:42:36;9.80;97.70
52189;DHT22;38162;45.926;13.608;2023-04-01T02:45:03;9.80;97.70
52189;DHT22;38162;45.926;13.608;2023-04-01T02:47:29;9.80;97.80
52189;DHT22;38162;45.926;13.608;2023-04-01T02:49:55;9.80;97.80
52189;DHT22;38162;45.926;13.608;2023-04-01T02:52:28;9.80;97.90
52189;DHT22;38162;45.926;13.608;2023-04-01T02:54:55;9.80;97.80
52189;DHT22;38162;45.926;13.608;2023-04-01T02:57:21;9.80;97.70
52189;DHT22;38162;45.926;13.608;2023-04-01T02:59:47;9.80;97.70
52189;DHT22;38162;45.926;13.608;2023-04-01T03:02:13;9.70;97.80
52189;DHT22;38162;45.926;13.608;2023-04-01T03:04:39;9.70;97.80
52189;DHT22;38162;45.926;13.608;2023-04-01T03:07:05;9.70;97.70
52189;DHT22;38162;45.926;13.608;2023-04-01T03:09:31;9.70;97.80
52189;DHT22;38162;45.926;13.608;2023-04-01T03:11:57;9.70;97.70
52189;DHT22;38162;45.926;13.608;2023-04-01T03:14:23;9.70;97.80
52189;DHT22;38162;45.926;13.608;2023-04-01T03:16:48;9.70;97.80
52189;DHT22;38162;45.926;13.608;2023-04-01T03:19:14;9.60;97.70
52189;DHT22;38162;45.926;13.608;2023-04-01T03:21:40;9.60;97.80
52189;DHT22;38162;45.926;13.608;2023-04-01T03:24:06;9.60;97.30
52189;DHT22;38162;45.926;13.608;2023-04-01T03:26:32;9.60;97.40
52189;DHT22;38162;45.926;13.608;2023-04-01T03:28:57;9.60;97.50
52189;DHT22;38162;45.926;13.608;2023-04-01T03:31:23;9.50;97.40
52189;DHT22;38162;45.926;13.608;2023-04-01T03:33:50;9.50;97.40
52189;DHT22;38162;45.926;13.608;2023-04-01T03:36:16;9.50;97.60
52189;DHT22;38162;45.926;13.608;2023-04-01T03:38:42;9.50;97.30
52189;DHT22;38162;45.926;13.608;2023-04-01T03:41:13;9.40;97.10
52189;DHT22;38162;45.926;13.608;2023-04-01T03:43:39;9.40;97.20
52189;DHT22;38162;45.926;13.608;2023-04-01T03:46:05;9.40;97.30
52189;DHT22;38162;45.926;13.608;2023-04-01T03:48:31;9.40;97.30
52189;DHT22;38162;45.926;13.608;2023-04-01T03:50:57;9.30;97.30
52189;DHT22;38162;45.926;13.608;2023-04-01T03:53:23;9.30;97.10
52189;DHT22;38162;45.926;13.608;2023-04-01T03:55:48;9.30;97.10
52189;DHT22;38162;45.926;13.608;2023-04-01T03:58:16;9.20;97.10
52189;DHT22;38162;45.926;13.608;2023-04-01T04:00:42;9.20;97.30
52189;DHT22;38162;45.926;13.608;2023-04-01T04:03:08;9.20;97.30
52189;DHT22;38162;45.926;13.608;2023-04-01T04:05:34;9.20;97.30
52189;DHT22;38162;45.926;13.608;2023-04-01T04:08:00;9.20;97.40
52189;DHT22;38162;45.926;13.608;2023-04-01T04:10:26;9.10;97.30
52189;DHT22;38162;45.926;13.608;2023-04-01T04:12:52;9.10;97.40
52189;DHT22;38162;45.926;13.608;2023-04-01T04:15:18;9.10;97.30
52189;DHT22;38162;45.926;13.608;2023-04-01T04:17:45;9.10;97.30
52189;DHT22;38162;45.926;13.608;2023-04-01T04:20:11;9.10;96.90
52189;DHT22;38162;45.926;13.608;2023-04-01T04:22:36;9.00;96.80
52189;DHT22;38162;45.926;13.608;2023-04-01T04:25:02;8.90;97.00
52189;DHT22;38162;45.926;13.608;2023-04-01T04:27:28;8.90;97.20
52189;DHT22;38162;45.926;13.608;2023-04-01T04:29:54;8.90;97.20
52189;DHT22;38162;45.926;13.608;2023-04-01T04:32:20;8.80;97.30
52189;DHT22;38162;45.926;13.608;2023-04-01T04:34:46;8.80;97.40
52189;DHT22;38162;45.926;13.608;2023-04-01T04:37:11;8.80;97.40
52189;DHT22;38162;45.926;13.608;2023-04-01T04:39:37;8.80;97.50
52189;DHT22;38162;45.926;13.608;2023-04-01T04:42:03;8.80;97.60
52189;DHT22;38162;45.926;13.608;2023-04-01T04:44:29;8.80;97.60
52189;DHT22;38162;45.926;13.608;2023-04-01T04:46:54;8.80;97.70
52189;DHT22;38162;45.926;13.608;2023-04-01T04:49:20;8.80;97.70
52189;DHT22;38162;45.926;13.608;2023-04-01T04:51:46;8.80;97.80
52189;DHT22;38162;45.926;13.608;2023-04-01T04:54:12;8.80;97.80
52189;DHT22;38162;45.926;13.608;2023-04-01T04:56:37;8.70;97.70
52189;DHT22;38162;45.926;13.608;2023-04-01T04:59:03;8.80;97.50
52189;DHT22;38162;45.926;13.608;2023-04-01T05:01:29;8.80;97.50
52189;DHT22;38162;45.926;13.608;2023-04-01T05:03:55;8.80;97.40
52189;DHT22;38162;45.926;13.608;2023-04-01T05:06:21;8.70;97.50
52189;DHT22;38162;45.926;13.608;2023-04-01T05:08:47;8.80;97.60
52189;DHT22;38162;45.926;13.608;2023-04-01T05:11:15;8.80;97.70
52189;DHT22;38162;45.926;13.608;2023-04-01T05:13:42;8.80;97.80
52189;DHT22;38162;45.926;13.608;2023-04-01T05:16:13;8.80;97.80
52189;DHT22;38162;45.926;13.608;2023-04-01T05:18:39;8.80;97.80
52189;DHT22;38162;45.926;13.608;2023-04-01T05:21:07;8.80;97.90
52189;DHT22;38162;45.926;13.608;2023-04-01T05:23:34;8.80;97.90
52189;DHT22;38162;45.926;13.608;2023-04-01T05:26:07;8.80;97.90
52189;DHT22;38162;45.926;13.608;2023-04-01T05:28:33;8.90;98.10
52189;DHT22;38162;45.926;13.608;2023-04-01T05:31:00;8.80;98.10
52189;DHT22;38162;45.926;13.608;2023-04-01T05:33:26;8.90;98.20
52189;DHT22;38162;45.926;13.608;2023-04-01T05:35:52;8.90;98.30
52189;DHT22;38162;45.926;13.608;2023-04-01T05:38:18;8.90;98.30
52189;DHT22;38162;45.926;13.608;2023-04-01T05:40:44;8.90;98.40
52189;DHT22;38162;45.926;13.608;2023-04-01T05:43:10;8.90;98.50
52189;DHT22;38162;45.926;13.608;2023-04-01T05:45:35;8.90;98.50
52189;DHT22;38162;45.926;13.608;2023-04-01T05:48:02;8.90;98.60
52189;DHT22;38162;45.926;13.608;2023-04-01T05:50:28;8.90;98.60
52189;DHT22;38162;45.926;13.608;2023-04-01T05:52:53;9.00;98.70
52189;DHT22;38162;45.926;13.608;2023-04-01T05:55:19;9.00;98.80
52189;DHT22;38162;45.926;13.608;2023-04-01T05:57:46;9.00;98.90
52189;DHT22;38162;45.926;13.608;2023-04-01T06:00:14;9.00;98.90
52189;DHT22;38162;45.926;13.608;2023-04-01T06:02:41;9.00;98.90
52189;DHT22;38162;45.926;13.608;2023-04-01T06:05:38;9.10;98.90
52189;DHT22;38162;45.926;13.608;2023-04-01T06:08:17;9.10;98.90
52189;DHT22;38162;45.926;13.608;2023-04-01T06:21:37;9.20;99.20
52189;DHT22;38162;45.926;13.608;2023-04-01T06:28:00;9.20;99.20
52189;DHT22;38162;45.926;13.608;2023-04-01T06:46:57;9.40;99.50
52189;DHT22;38162;45.926;13.608;2023-04-01T06:49:36;9.50;99.60
52189;DHT22;38162;45.926;13.608;2023-04-01T06:57:47;9.60;99.80
52189;DHT22;38162;45.926;13.608;2023-04-01T07:05:35;9.70;99.90
52189;DHT22;38162;45.926;13.608;2023-04-01T07:08:08;9.70;99.90
52189;DHT22;38162;45.926;13.608;2023-04-01T07:11:02;9.90;99.90
52189;DHT22;38162;45.926;13.608;2023-04-01T07:14:02;9.90;99.90
52189;DHT22;38162;45.926;13.608;2023-04-01T07:17:00;10.00;99.90
52189;DHT22;38162;45.926;13.608;2023-04-01T07:19:39;10.10;99.90
52189;DHT22;38162;45.926;13.608;2023-04-01T07:22:34;10.20;99.80
52189;DHT22;38162;45.926;13.608;2023-04-01T07:25:21;10.30;99.50
52189;DHT22;38162;45.926;13.608;2023-04-01T07:27:48;10.40;99.20
52189;DHT22;38162;45.926;13.608;2023-04-01T07:30:16;10.50;99.00
52189;DHT22;38162;45.926;13.608;2023-04-01T07:38:07;10.60;98.70
52189;DHT22;38162;45.926;13.608;2023-04-01T07:45:51;10.90;97.80
52189;DHT22;38162;45.926;13.608;2023-04-01T07:51:36;11.00;97.40
52189;DHT22;38162;45.926;13.608;2023-04-01T07:54:12;11.10;97.30
52189;DHT22;38162;45.926;13.608;2023-04-01T07:56:55;11.20;97.10
52189;DHT22;38162;45.926;13.608;2023-04-01T07:59:31;11.30;96.70
52189;DHT22;38162;45.926;13.608;2023-04-01T08:05:09;11.40;96.10
52189;DHT22;38162;45.926;13.608;2023-04-01T08:21:52;11.80;95.10
52189;DHT22;38162;45.926;13.608;2023-04-01T08:24:33;11.80;94.60
52189;DHT22;38162;45.926;13.608;2023-04-01T08:27:01;11.90;94.50
52189;DHT22;38162;45.926;13.608;2023-04-01T08:29:38;12.00;94.60
52189;DHT22;38162;45.926;13.608;2023-04-01T08:32:37;12.00;94.30
52189;DHT22;38162;45.926;13.608;2023-04-01T08:35:17;12.20;94.00
52189;DHT22;38162;45.926;13.608;2023-04-01T08:37:44;12.30;93.90
52189;DHT22;38162;45.926;13.608;2023-04-01T08:59:51;12.90;92.50
52189;DHT22;38162;45.926;13.608;2023-04-01T09:02:37;13.00;92.50
52189;DHT22;38162;45.926;13.608;2023-04-01T09:10:57;13.40;91.80
52189;DHT22;38162;45.926;13.608;2023-04-01T09:13:37;13.50;91.50
52189;DHT22;38162;45.926;13.608;2023-04-01T09:19:12;13.60;90.70
52189;DHT22;38162;45.926;13.608;2023-04-01T09:35:49;14.20;90.10
52189;DHT22;38162;45.926;13.608;2023-04-01T09:38:39;14.30;89.50
52189;DHT22;38162;45.926;13.608;2023-04-01T09:50:10;14.70;86.90
52189;DHT22;38162;45.926;13.608;2023-04-01T09:53:10;14.70;86.10
52189;DHT22;38162;45.926;13.608;2023-04-01T10:24:32;15.80;79.20
52189;DHT22;38162;45.926;13.608;2023-04-01T10:38:07;16.20;74.20
52189;DHT22;38162;45.926;13.608;2023-04-01T10:54:49;16.60;69.80
52189;DHT22;38162;45.926;13.608;2023-04-01T11:06:07;17.00;67.70
52189;DHT22;38162;45.926;13.608;2023-04-01T11:30:49;17.80;65.00
52189;DHT22;38162;45.926;13.608;2023-04-01T11:41:16;18.20;64.10
52189;DHT22;38162;45.926;13.608;2023-04-01T11:49:02;18.40;63.50
52189;DHT22;38162;45.926;13.608;2023-04-01T12:00:02;18.90;64.10
52189;DHT22;38162;45.926;13.608;2023-04-01T12:13:59;19.20;61.40
52189;DHT22;38162;45.926;13.608;2023-04-01T12:27:53;19.60;58.60
52189;DHT22;38162;45.926;13.608;2023-04-01T12:42:06;19.60;57.40
52189;DHT22;38162;45.926;13.608;2023-04-01T12:50:34;19.60;56.50
52189;DHT22;38162;45.926;13.608;2023-04-01T12:53:29;19.60;53.20
52189;DHT22;38162;45.926;13.608;2023-04-01T12:56:13;19.60;51.50
52189;DHT22;38162;45.926;13.608;2023-04-01T13:10:56;20.00;46.30
52189;DHT22;38162;45.926;13.608;2023-04-01T13:13:58;20.00;45.70
52189;DHT22;38162;45.926;13.608;2023-04-01T13:19:09;20.00;46.00
52189;DHT22;38162;45.926;13.608;2023-04-01T13:43:29;20.10;47.70
52189;DHT22;38162;45.926;13.608;2023-04-01T13:46:12;20.20;48.70
52189;DHT22;38162;45.926;13.608;2023-04-01T14:13:37;20.20;48.60
52189;DHT22;38162;45.926;13.608;2023-04-01T14:19:47;20.10;49.10
52189;DHT22;38162;45.926;13.608;2023-04-01T14:32:54;20.20;48.50
52189;DHT22;38162;45.926;13.608;2023-04-01T14:48:38;20.20;49.40
52189;DHT22;38162;45.926;13.608;2023-04-01T14:51:32;20.20;50.10
52189;DHT22;38162;45.926;13.608;2023-04-01T14:56:49;20.10;52.20
52189;DHT22;38162;45.926;13.608;2023-04-01T15:07:42;20.00;53.60
52189;DHT22;38162;45.926;13.608;2023-04-01T15:21:56;19.90;54.90
52189;DHT22;38162;45.926;13.608;2023-04-01T15:24:29;19.80;56.40
52189;DHT22;38162;45.926;13.608;2023-04-01T15:27:19;19.70;57.00
52189;DHT22;38162;45.926;13.608;2023-04-01T15:41:11;19.10;60.10
52189;DHT22;38162;45.926;13.608;2023-04-01T15:45:56;18.90;61.00
52189;DHT22;38162;45.926;13.608;2023-04-01T15:51:21;18.70;61.60
52189;DHT22;38162;45.926;13.608;2023-04-01T16:02:49;18.30;62.70
52189;DHT22;38162;45.926;13.608;2023-04-01T16:08:42;18.20;63.00
52189;DHT22;38162;45.926;13.608;2023-04-01T16:16:23;17.90;64.00
52189;DHT22;38162;45.926;13.608;2023-04-01T16:21:53;17.70;64.00
52189;DHT22;38162;45.926;13.608;2023-04-01T16:35:40;17.50;65.40
52189;DHT22;38162;45.926;13.608;2023-04-01T16:41:17;17.40;65.90
52189;DHT22;38162;45.926;13.608;2023-04-01T16:44:20;17.40;65.90
52189;DHT22;38162;45.926;13.608;2023-04-01T16:46:44;17.30;66.00
52189;DHT22;38162;45.926;13.608;2023-04-01T16:51:52;17.20;66.30
52189;DHT22;38162;45.926;13.608;2023-04-01T16:54:28;17.20;66.60
52189;DHT22;38162;45.926;13.608;2023-04-01T17:02:35;17.10;66.60
52189;DHT22;38162;45.926;13.608;2023-04-01T17:05:12;17.10;66.80
52189;DHT22;38162;45.926;13.608;2023-04-01T17:11:03;17.00;67.20
52189;DHT22;38162;45.926;13.608;2023-04-01T17:24:37;16.70;69.70
52189;DHT22;38162;45.926;13.608;2023-04-01T17:27:24;16.70;69.80
52189;DHT22;38162;45.926;13.608;2023-04-01T17:35:26;16.60;71.10
52189;DHT22;38162;45.926;13.608;2023-04-01T17:46:28;16.30;72.00
52189;DHT22;38162;45.926;13.608;2023-04-01T17:51:53;16.30;72.20
52189;DHT22;38162;45.926;13.608;2023-04-01T18:03:00;16.20;73.70
52189;DHT22;38162;45.926;13.608;2023-04-01T18:06:01;16.10;74.00
52189;DHT22;38162;45.926;13.608;2023-04-01T18:08:43;16.10;73.90
52189;DHT22;38162;45.926;13.608;2023-04-01T18:13:56;16.00;74.00
52189;DHT22;38162;45.926;13.608;2023-04-01T18:19:26;16.00;74.80
52189;DHT22;38162;45.926;13.608;2023-04-01T18:22:09;16.00;74.90
52189;DHT22;38162;45.926;13.608;2023-04-01T18:24:42;16.00;75.30
52189;DHT22;38162;45.926;13.608;2023-04-01T18:27:22;15.90;75.00
52189;DHT22;38162;45.926;13.608;2023-04-01T18:29:59;15.90;75.20
52189;DHT22;38162;45.926;13.608;2023-04-01T18:33:04;15.90;76.20
52189;DHT22;38162;45.926;13.608;2023-04-01T18:41:07;15.70;75.00
52189;DHT22;38162;45.926;13.608;2023-04-01T18:49:30;15.60;77.00
52189;DHT22;38162;45.926;13.608;2023-04-01T18:52:25;15.50;77.20
52189;DHT22;38162;45.926;13.608;2023-04-01T18:57:38;15.50;77.70
52189;DHT22;38162;45.926;13.608;2023-04-01T19:05:48;15.40;78.60
52189;DHT22;38162;45.926;13.608;2023-04-01T19:10:57;15.30;79.00
52189;DHT22;38162;45.926;13.608;2023-04-01T19:21:54;15.10;78.30
52189;DHT22;38162;45.926;13.608;2023-04-01T19:24:35;15.00;78.80
52189;DHT22;38162;45.926;13.608;2023-04-01T19:35:49;14.90;81.60
52189;DHT22;38162;45.926;13.608;2023-04-01T19:38:37;14.90;81.70
52189;DHT22;38162;45.926;13.608;2023-04-01T20:03:15;14.60;83.70
52189;DHT22;38162;45.926;13.608;2023-04-01T20:14:40;14.50;84.70
52189;DHT22;38162;45.926;13.608;2023-04-01T20:17:31;14.50;84.70
52189;DHT22;38162;45.926;13.608;2023-04-01T20:25:27;14.40;85.50
52189;DHT22;38162;45.926;13.608;2023-04-01T20:28:04;14.30;85.50
52189;DHT22;38162;45.926;13.608;2023-04-01T20:41:12;14.30;86.10
52189;DHT22;38162;45.926;13.608;2023-04-01T20:51:39;14.40;86.00
52189;DHT22;38162;45.926;13.608;2023-04-01T21:00:34;14.40;86.20
52189;DHT22;38162;45.926;13.608;2023-04-01T21:03:00;14.40;86.20
52189;DHT22;38162;45.926;13.608;2023-04-01T21:19:46;14.20;85.20
52189;DHT22;38162;45.926;13.608;2023-04-01T21:44:52;13.90;87.50
52189;DHT22;38162;45.926;13.608;2023-04-01T21:47:49;13.90;87.80
52189;DHT22;38162;45.926;13.608;2023-04-01T22:01:35;13.80;88.50
52189;DHT22;38162;45.926;13.608;2023-04-01T22:06:54;13.70;88.70
52189;DHT22;38162;45.926;13.608;2023-04-01T22:09:35;13.70;88.80
52189;DHT22;38162;45.926;13.608;2023-04-01T22:18:24;13.60;88.70
52189;DHT22;38162;45.926;13.608;2023-04-01T22:21:03;13.50;88.90
52189;DHT22;38162;45.926;13.608;2023-04-01T22:31:31;13.40;89.30
52189;DHT22;38162;45.926;13.608;2023-04-01T22:42:13;13.30;90.00
52189;DHT22;38162;45.926;13.608;2023-04-01T22:50:24;13.20;90.20
52189;DHT22;38162;45.926;13.608;2023-04-01T22:56:02;13.20;90.20
52189;DHT22;38162;45.926;13.608;2023-04-01T22:58:51;13.20;90.30
52189;DHT22;38162;45.926;13.608;2023-04-01T23:01:24;13.20;90.30
52189;DHT22;38162;45.926;13.608;2023-04-01T23:03:52;13.10;90.30
52189;DHT22;38162;45.926;13.608;2023-04-01T23:06:24;13.10;90.70
52189;DHT22;38162;45.926;13.608;2023-04-01T23:09:05;13.10;90.50
52189;DHT22;38162;45.926;13.608;2023-04-01T23:11:53;13.10;90.60
52189;DHT22;38162;45.926;13.608;2023-04-01T23:16:53;13.10;90.70
52189;DHT22;38162;45.926;13.608;2023-04-01T23:19:24;13.00;90.70
52189;DHT22;38162;45.926;13.608;2023-04-01T23:22:06;13.00;90.60
52189;DHT22;38162;45.926;13.608;2023-04-01T23:27:30;13.00;90.70
52189;DHT22;38162;45.926;13.608;2023-04-01T23:30:00;13.00;90.70
52189;DHT22;38162;45.926;13.608;2023-04-01T23:32:26;12.90;90.80
52189;DHT22;38162;45.926;13.608;2023-04-01T23:34:56;12.90;90.80
52189;DHT22;38162;45.926;13.608;2023-04-01T23:37:23;12.90;90.90
52189;DHT22;38162;45.926;13.608;2023-04-01T23:39:53;12.90;91.00
52189;DHT22;38162;45.926;13.608;2023-04-01T23:42:25;12.90;91.00
52189;DHT22;38162;45.926;13.608;2023-04-01T23:45:03;12.90;91.00
52189;DHT22;38162;45.926;13.608;2023-04-01T23:50:37;12.80;91.20
52189;DHT22;38162;45.926;13.608;2023-04-01T23:53:17;12.80;91.20
52189;DHT22;38162;45.926;13.608;2023-04-01T23:55:43;12.80;91.10
